createdAt,value
2023-01-09T00:00:08.035Z,96.22
2023-01-09T00:01:08.016Z,96.12
2023-01-09T00:02:07.956Z,96.12
2023-01-09T00:03:07.872Z,96.22
2023-01-09T00:04:27.888Z,96.37
2023-01-09T00:05:08.860Z,96.47
2023-01-09T00:06:07.840Z,96.42
2023-01-09T00:07:07.820Z,96.42
2023-01-09T00:08:07.867Z,96.47
2023-01-09T00:09:07.793Z,96.57
2023-01-09T00:10:07.773Z,96.78
2023-01-09T00:11:07.915Z,96.78
2023-01-09T00:12:07.750Z,96.88
2023-01-09T00:13:07.735Z,96.78
2023-01-09T00:14:09.210Z,96.78
2023-01-09T00:15:07.728Z,96.98
2023-01-09T00:16:07.705Z,97.03
2023-01-09T00:17:07.867Z,97.08
2023-01-09T00:18:07.680Z,97.19
2023-01-09T00:19:07.677Z,97.19
2023-01-09T00:20:31.038Z,97.19
2023-01-09T00:21:08.655Z,97.19
2023-01-09T00:22:07.601Z,97.19
2023-01-09T00:23:07.683Z,97.39
2023-01-09T00:24:07.653Z,97.39
2023-01-09T00:25:07.593Z,97.39
2023-01-09T00:26:07.553Z,97.39
2023-01-09T00:27:07.604Z,97.49
2023-01-09T00:28:07.552Z,97.49
2023-01-09T00:29:07.583Z,97.39
2023-01-09T00:30:07.538Z,97.49
2023-01-09T00:31:07.607Z,97.49
2023-01-09T00:32:07.488Z,97.39
2023-01-09T00:33:07.603Z,97.49
2023-01-09T00:34:07.450Z,97.49
2023-01-09T00:35:07.490Z,97.39
2023-01-09T00:36:07.449Z,97.39
2023-01-09T00:37:07.491Z,97.39
2023-01-09T00:38:07.445Z,97.29
2023-01-09T00:39:07.398Z,97.39
2023-01-09T00:40:07.450Z,97.44
2023-01-09T00:41:07.400Z,97.29
2023-01-09T00:42:07.349Z,97.44
2023-01-09T00:43:07.449Z,97.39
2023-01-09T00:44:07.335Z,97.33
2023-01-09T00:45:07.364Z,97.29
2023-01-09T00:46:07.492Z,97.29
2023-01-09T00:47:07.350Z,97.23
2023-01-09T00:48:07.269Z,97.23
2023-01-09T00:49:07.288Z,97.13
2023-01-09T00:50:07.265Z,97.13
2023-01-09T00:51:07.280Z,97.23
2023-01-09T00:52:07.437Z,97.23
2023-01-09T00:53:07.221Z,97.03
2023-01-09T00:54:07.182Z,97.03
2023-01-09T00:55:07.285Z,96.92
2023-01-09T00:56:07.207Z,96.92
2023-01-09T00:57:07.137Z,97.03
2023-01-09T00:58:07.257Z,96.92
2023-01-09T00:59:07.141Z,96.82
2023-01-09T01:00:07.108Z,96.82
2023-01-09T01:01:07.433Z,96.92
2023-01-09T01:02:07.355Z,96.82
2023-01-09T01:03:07.171Z,96.72
2023-01-09T01:04:07.127Z,96.62
2023-01-09T01:05:07.072Z,96.62
2023-01-09T01:06:07.006Z,96.51
2023-01-09T01:07:07.244Z,96.51
2023-01-09T01:08:07.061Z,96.41
2023-01-09T01:09:07.022Z,96.51
2023-01-09T01:10:07.159Z,96.41
2023-01-09T01:11:06.982Z,96.20
2023-01-09T01:12:07.029Z,96.20
2023-01-09T01:13:07.044Z,96.20
2023-01-09T01:14:06.946Z,96.10
2023-01-09T01:15:06.906Z,96.00
2023-01-09T01:16:07.058Z,96.10
2023-01-09T01:17:06.916Z,95.90
2023-01-09T01:18:06.884Z,95.90
2023-01-09T01:19:07.011Z,95.86
2023-01-09T01:20:06.835Z,95.69
2023-01-09T01:21:06.834Z,95.59
2023-01-09T01:22:06.918Z,95.44
2023-01-09T01:23:06.845Z,95.44
2023-01-09T01:24:06.783Z,95.34
2023-01-09T01:25:06.826Z,95.34
2023-01-09T01:26:06.741Z,95.14
2023-01-09T01:27:06.753Z,95.14
2023-01-09T01:28:06.882Z,95.03
2023-01-09T01:29:06.737Z,94.93
2023-01-09T01:30:06.746Z,95.03
2023-01-09T01:31:06.805Z,94.83
2023-01-09T01:32:06.656Z,94.83
2023-01-09T01:33:06.650Z,94.73
2023-01-09T01:34:06.810Z,94.73
2023-01-09T01:35:06.666Z,94.62
2023-01-09T01:36:06.615Z,94.42
2023-01-09T01:37:06.761Z,94.42
2023-01-09T01:38:06.589Z,94.11
2023-01-09T01:39:06.584Z,94.11
2023-01-09T01:40:06.741Z,94.01
2023-01-09T01:41:06.604Z,93.70
2023-01-09T01:42:06.572Z,93.66
2023-01-09T01:43:06.629Z,93.76
2023-01-09T01:44:06.519Z,93.76
2023-01-09T01:45:06.479Z,93.76
2023-01-09T01:47:15.866Z,93.80
2023-01-09T01:48:15.838Z,93.86
2023-01-09T01:49:15.902Z,93.76
2023-01-09T01:50:15.807Z,93.76
2023-01-09T01:51:15.873Z,93.55
2023-01-09T01:52:15.802Z,93.55
2023-01-09T01:53:15.813Z,93.45
2023-01-09T01:54:15.937Z,93.39
2023-01-09T01:55:15.734Z,93.55
2023-01-09T01:56:15.744Z,93.39
2023-01-09T01:57:15.755Z,93.35
2023-01-09T01:58:15.784Z,93.35
2023-01-09T01:59:15.737Z,93.35
2023-01-09T02:00:15.697Z,93.25
2023-01-09T02:01:15.804Z,93.25
2023-01-09T02:02:15.797Z,93.29
2023-01-09T02:03:15.640Z,93.15
2023-01-09T02:04:15.685Z,93.15
2023-01-09T02:05:15.673Z,93.15
2023-01-09T02:06:15.612Z,93.15
2023-01-09T02:07:15.641Z,93.25
2023-01-09T02:08:15.593Z,93.39
2023-01-09T02:09:15.585Z,93.35
2023-01-09T02:10:15.582Z,93.45
2023-01-09T02:11:15.571Z,93.45
2023-01-09T02:12:15.523Z,93.55
2023-01-09T02:13:15.561Z,93.66
2023-01-09T02:14:15.502Z,93.49
2023-01-09T02:15:15.493Z,93.49
2023-01-09T02:16:15.521Z,93.45
2023-01-09T02:17:15.503Z,93.35
2023-01-09T02:18:15.483Z,93.45
2023-01-09T02:19:15.418Z,93.35
2023-01-09T02:20:15.551Z,93.25
2023-01-09T02:21:15.400Z,92.94
2023-01-09T02:22:15.408Z,92.83
2023-01-09T02:23:27.125Z,92.83
2023-01-09T02:24:16.366Z,92.83
2023-01-09T02:25:15.358Z,92.83
2023-01-09T02:26:15.454Z,92.94
2023-01-09T02:27:15.320Z,92.83
2023-01-09T02:28:15.344Z,92.63
2023-01-09T02:29:15.286Z,92.74
2023-01-09T02:30:15.362Z,92.83
2023-01-09T02:31:15.315Z,92.83
2023-01-09T02:32:15.258Z,92.74
2023-01-09T02:33:15.299Z,92.53
2023-01-09T02:34:15.274Z,92.53
2023-01-09T02:35:15.233Z,92.53
2023-01-09T02:36:15.335Z,92.43
2023-01-09T02:37:15.198Z,92.43
2023-01-09T02:38:15.193Z,92.22
2023-01-09T02:39:15.251Z,92.22
2023-01-09T02:40:15.178Z,92.22
2023-01-09T02:41:15.120Z,92.12
2023-01-09T02:42:15.285Z,91.91
2023-01-09T02:43:15.099Z,91.82
2023-01-09T02:44:15.152Z,91.91
2023-01-09T02:45:15.261Z,91.82
2023-01-09T02:46:15.080Z,91.61
2023-01-09T02:47:15.072Z,91.50
2023-01-09T02:48:15.067Z,91.71
2023-01-09T02:49:15.027Z,91.71
2023-01-09T02:50:15.091Z,91.61
2023-01-09T02:51:15.002Z,91.50
2023-01-09T02:52:14.992Z,91.50
2023-01-09T02:53:14.987Z,91.71
2023-01-09T02:54:14.942Z,91.61
2023-01-09T02:55:14.979Z,91.61
2023-01-09T02:56:14.950Z,91.61
2023-01-09T02:57:14.933Z,91.61
2023-01-09T02:58:14.897Z,91.61
2023-01-09T02:59:14.892Z,91.61
2023-01-09T03:00:14.877Z,91.50
2023-01-09T03:01:15.044Z,91.50
2023-01-09T03:02:14.904Z,91.50
2023-01-09T03:03:14.932Z,91.50
2023-01-09T03:04:14.830Z,91.50
2023-01-09T03:05:14.851Z,91.50
2023-01-09T03:06:14.792Z,91.61
2023-01-09T03:07:14.780Z,91.40
2023-01-09T03:09:24.171Z,91.65
2023-01-09T03:10:24.173Z,91.75
2023-01-09T03:11:24.129Z,91.61
2023-01-09T03:12:24.150Z,91.61
2023-01-09T03:13:24.077Z,91.61
2023-01-09T03:14:24.077Z,91.65
2023-01-09T03:15:24.280Z,91.65
2023-01-09T03:16:24.109Z,91.75
2023-01-09T03:17:24.045Z,91.75
2023-01-09T03:18:24.120Z,91.75
2023-01-09T03:19:23.989Z,91.75
2023-01-09T03:20:23.997Z,91.86
2023-01-09T03:21:24.076Z,91.96
2023-01-09T03:22:23.989Z,91.96
2023-01-09T03:23:23.993Z,92.06
2023-01-09T03:24:23.983Z,92.06
2023-01-09T03:25:23.993Z,92.16
2023-01-09T03:26:23.929Z,92.06
2023-01-09T03:27:23.898Z,92.06
2023-01-09T03:28:24.029Z,92.06
2023-01-09T03:29:23.872Z,91.96
2023-01-09T03:30:23.848Z,92.06
2023-01-09T03:31:23.994Z,91.96
2023-01-09T03:32:23.851Z,92.06
2023-01-09T03:33:23.818Z,91.96
2023-01-09T03:34:23.885Z,91.86
2023-01-09T03:35:23.818Z,91.86
2023-01-09T03:36:23.783Z,91.75
2023-01-09T03:37:23.761Z,91.75
2023-01-09T03:38:23.871Z,91.75
2023-01-09T03:39:23.819Z,91.75
2023-01-09T03:40:23.737Z,91.65
2023-01-09T03:41:23.738Z,91.65
2023-01-09T03:42:23.727Z,91.65
2023-01-09T03:43:23.699Z,91.75
2023-01-09T03:44:23.688Z,91.65
2023-01-09T03:45:23.678Z,91.86
2023-01-09T03:46:23.643Z,92.06
2023-01-09T03:47:23.655Z,92.27
2023-01-09T03:48:23.725Z,92.47
2023-01-09T03:49:23.622Z,92.41
2023-01-09T03:50:23.585Z,92.57
2023-01-09T03:51:23.597Z,92.68
2023-01-09T03:52:23.565Z,92.88
2023-01-09T03:53:23.570Z,92.72
2023-01-09T03:54:23.560Z,92.61
2023-01-09T03:55:23.525Z,92.21
2023-01-09T03:56:23.523Z,92.31
2023-01-09T03:57:23.538Z,92.21
2023-01-09T03:58:23.648Z,92.10
2023-01-09T03:59:23.491Z,91.90
2023-01-09T04:00:23.457Z,91.59
2023-01-09T04:01:23.558Z,91.28
2023-01-09T04:02:23.484Z,91.08
2023-01-09T04:03:23.459Z,91.18
2023-01-09T04:04:23.545Z,91.02
2023-01-09T04:05:23.389Z,91.12
2023-01-09T04:06:23.376Z,91.12
2023-01-09T04:07:23.436Z,91.02
2023-01-09T04:08:23.351Z,90.91
2023-01-09T04:09:23.374Z,90.65
2023-01-09T04:10:23.348Z,90.44
2023-01-09T04:11:23.315Z,90.24
2023-01-09T04:12:23.316Z,90.24
2023-01-09T04:13:23.365Z,89.83
2023-01-09T04:14:23.281Z,89.83
2023-01-09T04:15:23.274Z,89.83
2023-01-09T04:16:23.307Z,89.93
2023-01-09T04:17:23.301Z,89.62
2023-01-09T04:18:23.216Z,89.62
2023-01-09T04:19:23.195Z,89.52
2023-01-09T04:20:23.196Z,89.42
2023-01-09T04:21:23.241Z,89.42
2023-01-09T04:22:23.156Z,89.42
2023-01-09T04:23:23.148Z,89.42
2023-01-09T04:24:23.148Z,89.31
2023-01-09T04:25:23.129Z,89.31
2023-01-09T04:26:23.107Z,89.31
2023-01-09T04:27:23.190Z,89.52
2023-01-09T04:28:23.086Z,89.52
2023-01-09T04:29:23.066Z,89.52
2023-01-09T04:30:23.179Z,89.52
2023-01-09T04:31:23.060Z,90.03
2023-01-09T04:32:23.051Z,90.14
2023-01-09T04:33:23.108Z,90.28
2023-01-09T04:34:22.992Z,90.38
2023-01-09T04:35:22.991Z,90.44
2023-01-09T04:36:22.968Z,90.55
2023-01-09T04:37:23.000Z,90.55
2023-01-09T04:38:23.003Z,90.48
2023-01-09T04:39:22.982Z,90.69
2023-01-09T04:40:22.923Z,90.59
2023-01-09T04:41:22.975Z,90.59
2023-01-09T04:42:22.914Z,90.69
2023-01-09T04:43:22.895Z,90.80
2023-01-09T04:44:22.927Z,90.80
2023-01-09T04:45:22.897Z,90.80
2023-01-09T04:46:22.837Z,90.59
2023-01-09T04:47:22.879Z,90.28
2023-01-09T04:48:22.835Z,90.18
2023-01-09T04:49:22.817Z,90.18
2023-01-09T04:50:22.864Z,89.87
2023-01-09T04:51:22.810Z,89.87
2023-01-09T04:52:22.757Z,89.56
2023-01-09T04:53:22.809Z,89.46
2023-01-09T04:54:37.217Z,89.36
2023-01-09T04:55:23.765Z,88.95
2023-01-09T04:56:22.792Z,88.64
2023-01-09T04:57:22.872Z,88.33
2023-01-09T04:58:22.779Z,88.23
2023-01-09T04:59:22.687Z,88.12
2023-01-09T05:00:22.731Z,88.02
2023-01-09T05:01:22.863Z,87.71
2023-01-09T05:02:22.769Z,87.51
2023-01-09T05:03:22.644Z,86.99
2023-01-09T05:04:22.690Z,86.79
2023-01-09T05:05:22.688Z,86.68
2023-01-09T05:06:22.570Z,86.48
2023-01-09T05:07:22.578Z,86.27
2023-01-09T05:08:22.534Z,86.17
2023-01-09T05:09:22.648Z,86.07
2023-01-09T05:10:22.513Z,86.27
2023-01-09T05:11:22.496Z,86.07
2023-01-09T05:12:30.749Z,86.17
2023-01-09T05:13:22.466Z,86.07
2023-01-09T05:14:22.464Z,85.97
2023-01-09T05:15:22.511Z,85.97
2023-01-09T05:17:31.869Z,85.97
2023-01-09T05:18:31.815Z,85.86
2023-01-09T05:19:31.927Z,85.55
2023-01-09T05:20:31.882Z,85.55
2023-01-09T05:21:31.810Z,85.46
2023-01-09T05:22:31.744Z,85.35
2023-01-09T05:23:31.823Z,85.46
2023-01-09T05:24:31.733Z,85.35
2023-01-09T05:25:31.759Z,85.35
2023-01-09T05:26:31.713Z,85.25
2023-01-09T05:27:31.774Z,85.14
2023-01-09T05:29:41.064Z,85.35
2023-01-09T05:30:41.055Z,85.14
2023-01-09T05:31:41.168Z,85.04
2023-01-09T05:32:41.003Z,84.84
2023-01-09T05:33:41.013Z,84.84
2023-01-09T05:34:40.991Z,84.74
2023-01-09T05:35:40.950Z,84.74
2023-01-09T05:36:41.035Z,84.53
2023-01-09T05:37:41.041Z,84.63
2023-01-09T05:38:40.960Z,84.42
2023-01-09T05:39:40.945Z,84.22
2023-01-09T05:40:41.010Z,84.12
2023-01-09T05:41:40.891Z,84.22
2023-01-09T05:42:40.858Z,84.01
2023-01-09T05:43:41.015Z,83.81
2023-01-09T05:44:40.830Z,83.61
2023-01-09T05:45:40.854Z,83.29
2023-01-09T05:46:40.992Z,83.09
2023-01-09T05:47:40.810Z,82.89
2023-01-09T05:48:40.788Z,82.78
2023-01-09T05:49:40.946Z,82.89
2023-01-09T05:50:40.779Z,82.78
2023-01-09T05:51:40.765Z,82.68
2023-01-09T05:52:40.905Z,82.68
2023-01-09T05:53:40.768Z,82.47
2023-01-09T05:54:40.700Z,82.37
2023-01-09T05:55:40.742Z,82.17
2023-01-09T05:56:40.676Z,81.96
2023-01-09T05:57:40.700Z,81.96
2023-01-09T05:58:40.654Z,81.86
2023-01-09T05:59:40.618Z,81.96
2023-01-09T06:00:40.697Z,81.76
2023-01-09T06:01:40.713Z,81.55
2023-01-09T06:02:40.780Z,81.65
2023-01-09T06:03:40.637Z,81.55
2023-01-09T06:04:54.748Z,81.45
2023-01-09T06:05:40.555Z,81.45
2023-01-09T06:06:55.851Z,81.55
2023-01-09T06:07:41.567Z,81.55
2023-01-09T06:08:40.527Z,81.45
2023-01-09T06:10:17.104Z,81.45
2023-01-09T06:10:41.538Z,81.79
2023-01-09T06:11:40.461Z,81.86
2023-01-09T06:12:40.469Z,81.79
2023-01-09T06:13:40.522Z,81.79
2023-01-09T06:14:40.469Z,81.79
2023-01-09T06:15:40.568Z,81.69
2023-01-09T06:16:43.457Z,81.38
2023-01-09T06:17:40.393Z,81.38
2023-01-09T06:18:40.433Z,81.38
2023-01-09T06:19:40.447Z,81.18
2023-01-09T06:20:40.641Z,81.18
2023-01-09T06:21:40.431Z,80.97
2023-01-09T06:22:40.462Z,80.87
2023-01-09T06:23:40.385Z,80.77
2023-01-09T06:24:42.144Z,80.77
2023-01-09T06:25:40.306Z,80.77
2023-01-09T06:26:40.319Z,80.77
2023-01-09T06:28:49.648Z,80.91
2023-01-09T06:29:49.605Z,80.66
2023-01-09T06:30:49.769Z,80.77
2023-01-09T06:31:49.627Z,80.77
2023-01-09T06:32:49.625Z,80.87
2023-01-09T06:33:49.558Z,80.87
2023-01-09T06:34:49.565Z,80.66
2023-01-09T06:35:49.625Z,80.77
2023-01-09T06:36:49.568Z,80.66
2023-01-09T06:37:49.588Z,80.66
2023-01-09T06:38:49.711Z,80.56
2023-01-09T06:39:49.496Z,80.35
2023-01-09T06:40:49.556Z,80.35
2023-01-09T06:41:49.463Z,80.15
2023-01-09T06:43:12.135Z,80.15
2023-01-09T06:43:49.447Z,80.15
2023-01-09T06:44:49.416Z,79.94
2023-01-09T06:45:49.521Z,79.74
2023-01-09T06:46:49.421Z,79.63
2023-01-09T06:47:49.379Z,79.53
2023-01-09T06:48:49.358Z,79.53
2023-01-09T06:49:49.474Z,79.53
2023-01-09T06:50:49.350Z,79.43
2023-01-09T06:51:49.326Z,79.53
2023-01-09T06:52:49.342Z,79.33
2023-01-09T06:53:49.346Z,79.33
2023-01-09T06:54:49.293Z,79.22
2023-01-09T06:55:49.266Z,79.22
2023-01-09T06:56:49.537Z,79.22
2023-01-09T06:57:49.442Z,79.43
2023-01-09T06:58:49.248Z,79.22
2023-01-09T06:59:49.284Z,79.12
2023-01-09T07:00:49.268Z,78.92
2023-01-09T07:01:49.456Z,78.81
2023-01-09T07:02:49.214Z,79.02
2023-01-09T07:04:02.316Z,78.92
2023-01-09T07:04:49.172Z,78.81
2023-01-09T07:05:49.191Z,78.81
2023-01-09T07:06:49.126Z,78.71
2023-01-09T07:08:10.530Z,78.81
2023-01-09T07:08:49.108Z,78.81
2023-01-09T07:09:49.173Z,78.71
2023-01-09T07:10:49.147Z,78.61
2023-01-09T07:11:49.072Z,78.47
2023-01-09T07:12:49.081Z,78.47
2023-01-09T07:13:49.196Z,78.27
2023-01-09T07:14:50.039Z,78.30
2023-01-09T07:15:49.043Z,78.50
2023-01-09T07:16:49.166Z,78.61
2023-01-09T07:17:49.129Z,78.61
2023-01-09T07:18:48.974Z,78.50
2023-01-09T07:20:06.026Z,78.50
2023-01-09T07:20:49.962Z,78.81
2023-01-09T07:21:49.065Z,78.71
2023-01-09T07:22:49.044Z,78.92
2023-01-09T07:23:48.957Z,78.92
2023-01-09T07:24:48.902Z,78.92
2023-01-09T07:25:48.937Z,78.71
2023-01-09T07:26:48.962Z,78.61
2023-01-09T07:27:48.899Z,78.71
2023-01-09T07:28:48.890Z,78.47
2023-01-09T07:29:49.046Z,78.20
2023-01-09T07:30:48.852Z,78.30
2023-01-09T07:31:48.784Z,78.16
2023-01-09T07:32:48.771Z,78.06
2023-01-09T07:33:48.786Z,77.95
2023-01-09T07:34:48.845Z,78.06
2023-01-09T07:35:48.726Z,78.16
2023-01-09T07:36:48.831Z,78.27
2023-01-09T07:37:48.767Z,78.27
2023-01-09T07:38:48.844Z,77.95
2023-01-09T07:39:48.704Z,77.89
2023-01-09T07:40:48.808Z,78.20
2023-01-09T07:41:48.658Z,78.16
2023-01-09T07:42:48.643Z,78.27
2023-01-09T07:43:48.686Z,78.16
2023-01-09T07:44:48.658Z,78.36
2023-01-09T07:45:48.611Z,78.16
2023-01-09T07:46:48.673Z,78.06
2023-01-09T07:47:48.609Z,78.16
2023-01-09T07:48:48.575Z,78.27
2023-01-09T07:49:48.756Z,78.36
2023-01-09T07:50:48.544Z,78.06
2023-01-09T07:51:48.651Z,78.06
2023-01-09T07:52:48.558Z,78.16
2023-01-09T07:53:48.648Z,78.16
2023-01-09T07:54:48.516Z,78.23
2023-01-09T07:55:48.492Z,78.33
2023-01-09T07:56:48.456Z,78.47
2023-01-09T07:57:48.671Z,78.74
2023-01-09T07:58:48.510Z,78.74
2023-01-09T07:59:48.457Z,78.53
2023-01-09T08:00:48.474Z,78.43
2023-01-09T08:01:48.566Z,78.53
2023-01-09T08:02:48.477Z,78.47
2023-01-09T08:03:48.400Z,78.36
2023-01-09T08:04:48.562Z,78.57
2023-01-09T08:05:51.254Z,78.47
2023-01-09T08:06:48.371Z,78.36
2023-01-09T08:07:48.483Z,78.47
2023-01-09T08:08:48.414Z,78.33
2023-01-09T08:09:48.361Z,78.23
2023-01-09T08:10:48.394Z,78.06
2023-01-09T08:11:48.413Z,78.06
2023-01-09T08:12:48.356Z,77.85
2023-01-09T08:13:48.276Z,77.71
2023-01-09T08:14:48.243Z,77.23
2023-01-09T08:15:48.524Z,77.13
2023-01-09T08:16:48.269Z,77.44
2023-01-09T08:17:48.289Z,77.55
2023-01-09T08:18:48.171Z,77.55
2023-01-09T08:19:48.355Z,77.65
2023-01-09T08:20:48.175Z,77.34
2023-01-09T08:21:48.126Z,77.34
2023-01-09T08:22:48.285Z,77.20
2023-01-09T08:23:48.145Z,77.00
2023-01-09T08:24:48.095Z,76.79
2023-01-09T08:25:48.295Z,76.58
2023-01-09T08:26:48.050Z,76.48
2023-01-09T08:27:48.073Z,76.79
2023-01-09T08:29:14.116Z,76.58
2023-01-09T08:29:49.038Z,76.79
2023-01-09T08:30:47.983Z,76.68
2023-01-09T08:31:48.105Z,76.48
2023-01-09T08:32:48.138Z,76.48
2023-01-09T08:33:47.957Z,76.58
2023-01-09T08:34:48.044Z,76.48
2023-01-09T08:35:47.980Z,76.48
2023-01-09T08:36:47.949Z,76.58
2023-01-09T08:37:48.070Z,76.58
2023-01-09T08:38:47.907Z,76.48
2023-01-09T08:39:48.705Z,76.28
2023-01-09T08:40:48.127Z,76.04
2023-01-09T08:41:47.912Z,75.66
2023-01-09T08:42:47.842Z,75.87
2023-01-09T08:43:47.885Z,75.87
2023-01-09T08:44:47.886Z,75.87
2023-01-09T08:45:47.821Z,75.66
2023-01-09T08:46:48.049Z,75.52
2023-01-09T08:47:47.855Z,75.11
2023-01-09T08:48:47.888Z,75.32
2023-01-09T08:49:47.798Z,75.25
2023-01-09T08:50:47.888Z,75.25
2023-01-09T08:51:47.803Z,75.45
2023-01-09T08:52:47.723Z,75.32
2023-01-09T08:53:47.898Z,75.42
2023-01-09T08:54:47.717Z,75.42
2023-01-09T08:55:47.674Z,75.21
2023-01-09T08:56:47.715Z,75.52
2023-01-09T08:57:47.622Z,75.62
2023-01-09T08:58:47.634Z,75.52
2023-01-09T08:59:47.680Z,75.52
2023-01-09T09:00:47.663Z,75.62
2023-01-09T09:01:47.588Z,75.38
2023-01-09T09:02:47.802Z,75.59
2023-01-09T09:03:47.600Z,75.59
2023-01-09T09:04:47.639Z,75.38
2023-01-09T09:05:47.613Z,75.18
2023-01-09T09:06:47.529Z,74.98
2023-01-09T09:07:47.498Z,75.08
2023-01-09T09:08:47.638Z,74.87
2023-01-09T09:09:47.542Z,74.98
2023-01-09T09:10:47.571Z,74.98
2023-01-09T09:11:47.799Z,74.87
2023-01-09T09:12:47.464Z,74.87
2023-01-09T09:13:47.488Z,74.98
2023-01-09T09:14:47.600Z,75.08
2023-01-09T09:15:47.522Z,75.18
2023-01-09T09:16:47.548Z,75.08
2023-01-09T09:17:47.697Z,74.87
2023-01-09T09:18:47.477Z,74.94
2023-01-09T09:19:47.383Z,74.63
2023-01-09T09:20:47.572Z,74.43
2023-01-09T09:21:47.350Z,74.46
2023-01-09T09:22:47.436Z,74.66
2023-01-09T09:23:47.512Z,74.77
2023-01-09T09:24:47.321Z,74.66
2023-01-09T09:25:47.309Z,74.43
2023-01-09T09:26:47.429Z,74.66
2023-01-09T09:28:06.613Z,74.84
2023-01-09T09:28:48.257Z,74.77
2023-01-09T09:29:47.230Z,74.87
2023-01-09T09:30:47.259Z,74.73
2023-01-09T09:31:47.214Z,74.73
2023-01-09T09:32:47.193Z,74.63
2023-01-09T09:33:47.280Z,74.63
2023-01-09T09:34:47.197Z,74.63
2023-01-09T09:35:47.209Z,74.53
2023-01-09T09:36:47.254Z,74.63
2023-01-09T09:37:47.126Z,74.84
2023-01-09T09:38:47.149Z,74.63
2023-01-09T09:39:47.265Z,74.53
2023-01-09T09:40:47.219Z,74.53
2023-01-09T09:41:47.078Z,74.63
2023-01-09T09:43:37.748Z,74.53
2023-01-09T09:43:48.022Z,74.98
2023-01-09T09:44:53.390Z,74.84
2023-01-09T09:45:48.055Z,74.43
2023-01-09T09:46:47.073Z,74.43
2023-01-09T09:47:47.056Z,74.63
2023-01-09T09:48:46.998Z,74.43
2023-01-09T09:49:46.998Z,74.19
2023-01-09T09:50:47.075Z,73.98
2023-01-09T09:51:47.005Z,73.78
2023-01-09T09:52:46.967Z,73.68
2023-01-09T09:53:46.986Z,73.57
2023-01-09T09:54:47.007Z,73.44
2023-01-09T09:55:46.890Z,73.44
2023-01-09T09:56:46.897Z,73.03
2023-01-09T09:57:46.968Z,73.13
2023-01-09T09:58:46.846Z,72.82
2023-01-09T09:59:46.826Z,72.72
2023-01-09T10:00:47.064Z,72.41
2023-01-09T10:01:46.825Z,72.17
2023-01-09T10:02:46.807Z,72.17
2023-01-09T10:03:46.878Z,72.00
2023-01-09T10:04:46.806Z,72.52
2023-01-09T10:05:46.753Z,72.72
2023-01-09T10:06:46.734Z,73.23
2023-01-09T10:07:50.741Z,73.44
2023-01-09T10:08:46.715Z,73.64
2023-01-09T10:09:46.765Z,73.64
2023-01-09T10:11:15.984Z,73.85
2023-01-09T10:11:47.650Z,73.95
2023-01-09T10:12:46.628Z,74.05
2023-01-09T10:13:46.637Z,74.15
2023-01-09T10:14:46.667Z,73.95
2023-01-09T10:15:46.736Z,73.85
2023-01-09T10:16:46.673Z,74.15
2023-01-09T10:17:46.577Z,74.26
2023-01-09T10:18:46.585Z,74.56
2023-01-09T10:19:46.700Z,74.26
2023-01-09T10:20:46.577Z,74.36
2023-01-09T10:21:46.592Z,74.77
2023-01-09T10:22:46.644Z,74.53
2023-01-09T10:23:46.506Z,74.22
2023-01-09T10:24:46.583Z,74.26
2023-01-09T10:25:46.523Z,74.32
2023-01-09T10:26:46.471Z,74.22
2023-01-09T10:27:46.507Z,74.11
2023-01-09T10:28:46.595Z,74.56
2023-01-09T10:29:46.455Z,75.07
2023-01-09T10:30:46.384Z,74.56
2023-01-09T10:31:46.454Z,74.15
2023-01-09T10:32:46.374Z,74.05
2023-01-09T10:33:46.417Z,73.74
2023-01-09T10:34:58.054Z,73.54
2023-01-09T10:35:47.934Z,73.95
2023-01-09T10:36:46.393Z,73.85
2023-01-09T10:37:46.436Z,73.85
2023-01-09T10:38:46.310Z,74.05
2023-01-09T10:39:46.279Z,74.26
2023-01-09T10:40:50.554Z,74.05
2023-01-09T10:41:46.250Z,74.05
2023-01-09T10:42:46.273Z,73.64
2023-01-09T10:43:46.239Z,73.85
2023-01-09T10:44:46.365Z,73.61
2023-01-09T10:45:46.187Z,73.50
2023-01-09T10:46:46.499Z,73.20
2023-01-09T10:47:46.289Z,72.89
2023-01-09T10:48:46.165Z,72.78
2023-01-09T10:49:46.183Z,72.99
2023-01-09T10:50:46.239Z,72.99
2023-01-09T10:51:46.179Z,72.89
2023-01-09T10:52:46.279Z,73.20
2023-01-09T10:53:46.126Z,73.20
2023-01-09T10:54:46.163Z,73.40
2023-01-09T10:55:46.234Z,73.50
2023-01-09T10:56:46.057Z,73.30
2023-01-09T10:57:46.084Z,73.40
2023-01-09T10:58:46.237Z,73.50
2023-01-09T10:59:46.017Z,73.61
2023-01-09T11:00:46.116Z,73.61
2023-01-09T11:01:45.994Z,73.50
2023-01-09T11:02:45.985Z,73.71
2023-01-09T11:03:45.973Z,73.71
2023-01-09T11:04:45.974Z,73.61
2023-01-09T11:05:46.200Z,73.40
2023-01-09T11:06:45.905Z,73.71
2023-01-09T11:07:45.895Z,73.50
2023-01-09T11:08:46.017Z,73.36
2023-01-09T11:09:45.889Z,73.16
2023-01-09T11:10:45.864Z,72.86
2023-01-09T11:11:45.901Z,72.75
2023-01-09T11:12:45.918Z,72.75
2023-01-09T11:13:45.855Z,72.75
2023-01-09T11:14:45.823Z,72.96
2023-01-09T11:15:45.965Z,72.75
2023-01-09T11:16:45.797Z,72.75
2023-01-09T11:17:45.790Z,72.86
2023-01-09T11:18:45.773Z,72.86
2023-01-09T11:19:45.815Z,72.96
2023-01-09T11:20:45.727Z,72.86
2023-01-09T11:21:45.784Z,72.86
2023-01-09T11:22:45.743Z,73.06
2023-01-09T11:23:45.678Z,73.27
2023-01-09T11:24:45.754Z,73.68
2023-01-09T11:25:45.816Z,73.78
2023-01-09T11:26:45.691Z,74.19
2023-01-09T11:27:45.654Z,74.73
2023-01-09T11:28:45.623Z,75.24
2023-01-09T11:29:45.617Z,75.35
2023-01-09T11:30:45.616Z,75.65
2023-01-09T11:31:45.723Z,75.35
2023-01-09T11:32:45.573Z,75.96
2023-01-09T11:33:45.624Z,75.99
2023-01-09T11:34:45.613Z,75.89
2023-01-09T11:35:45.571Z,76.20
2023-01-09T11:37:15.031Z,76.51
2023-01-09T11:37:46.530Z,75.79
2023-01-09T11:38:45.476Z,76.40
2023-01-09T11:39:45.495Z,76.47
2023-01-09T11:40:45.518Z,76.27
2023-01-09T11:41:45.496Z,76.06
2023-01-09T11:42:45.474Z,75.76
2023-01-09T11:43:45.539Z,75.76
2023-01-09T11:44:45.420Z,75.55
2023-01-09T11:45:53.230Z,75.35
2023-01-09T11:46:46.620Z,75.45
2023-01-09T11:47:45.347Z,75.65
2023-01-09T11:48:45.494Z,75.62
2023-01-09T11:49:45.392Z,75.31
2023-01-09T11:50:45.327Z,75.31
2023-01-09T11:51:45.455Z,75.21
2023-01-09T11:52:45.277Z,74.90
2023-01-09T11:53:45.275Z,74.39
2023-01-09T11:54:45.478Z,75.10
2023-01-09T11:55:45.405Z,75.10
2023-01-09T11:56:45.232Z,74.90
2023-01-09T11:57:45.248Z,74.60
2023-01-09T11:58:45.219Z,74.29
2023-01-09T11:59:45.224Z,74.60
2023-01-09T12:00:45.182Z,74.29
2023-01-09T12:01:45.510Z,74.69
2023-01-09T12:02:45.199Z,73.78
2023-01-09T12:03:45.214Z,74.08
2023-01-09T12:04:45.292Z,73.98
2023-01-09T12:05:45.141Z,74.26
2023-01-09T12:06:45.127Z,73.94
2023-01-09T12:07:45.190Z,73.94
2023-01-09T12:08:45.092Z,73.54
2023-01-09T12:09:45.089Z,73.74
2023-01-09T12:10:45.202Z,74.15
2023-01-09T12:11:45.052Z,73.74
2023-01-09T12:12:45.049Z,73.85
2023-01-09T12:13:45.145Z,73.44
2023-01-09T12:14:45.048Z,73.44
2023-01-09T12:15:44.984Z,73.74
2023-01-09T12:16:45.061Z,74.05
2023-01-09T12:17:44.952Z,74.15
2023-01-09T12:18:44.994Z,74.15
2023-01-09T12:19:45.097Z,74.39
2023-01-09T12:20:44.927Z,74.90
2023-01-09T12:21:44.929Z,75.42
2023-01-09T12:22:44.950Z,76.06
2023-01-09T12:23:44.880Z,76.47
2023-01-09T12:24:44.860Z,76.78
2023-01-09T12:25:44.988Z,77.09
2023-01-09T12:26:44.904Z,77.84
2023-01-09T12:27:44.830Z,78.45
2023-01-09T12:28:45.004Z,78.25
2023-01-09T12:29:44.917Z,78.28
2023-01-09T12:30:44.773Z,78.80
2023-01-09T12:31:44.928Z,79.41
2023-01-09T12:32:44.759Z,79.72
2023-01-09T12:33:44.741Z,80.07
2023-01-09T12:34:44.774Z,80.07
2023-01-09T12:35:44.832Z,80.37
2023-01-09T12:36:44.787Z,80.58
2023-01-09T12:37:44.987Z,80.78
2023-01-09T12:38:44.788Z,81.40
2023-01-09T12:39:45.865Z,81.81
2023-01-09T12:40:44.684Z,82.42
2023-01-09T12:41:47.537Z,82.87
2023-01-09T12:42:44.625Z,83.28
2023-01-09T12:43:44.590Z,83.49
2023-01-09T12:44:44.731Z,83.69
2023-01-09T12:45:44.679Z,83.69
2023-01-09T12:46:44.573Z,83.69
2023-01-09T12:47:45.728Z,83.69
2023-01-09T12:49:15.367Z,83.59
2023-01-09T12:49:44.512Z,81.57
2023-01-09T12:50:44.560Z,81.02
2023-01-09T12:51:44.654Z,80.82
2023-01-09T12:52:44.551Z,79.49
2023-01-09T12:53:44.509Z,79.04
2023-01-09T12:54:44.558Z,78.42
2023-01-09T12:55:44.480Z,78.02
2023-01-09T12:56:44.518Z,78.02
2023-01-09T12:57:44.443Z,78.08